Pagina principale
METAR-TAF:

METAR-TAF

Aeroporti :

Benson, Inghilterra

latitudine: 51-37N, longitudine: 001-05W, altezza: 63 m

Osservazione

Il bollettino è stato emesso 58 minuti fa, alle 15:50 UTC
Vento 13 kt da est
Temperature 23°C
Umidità 29%
Pressione 1021 hPa
Visibilità 10 km o più

METAR: EGUB 311550Z AUTO 09013KT 9999 // NCD 23/04 Q1021

Ora: 17:48 (16:48 UTC)


TAF: mancante

Osservazioni e previsioni meteorologiche di più di 4000 aeroporti (messaggi METAR e TAF).

Le stazioni disponibili sono rappresentate dai dischi gialli e rossi sulla carta.

Puntare il mouse per vedere il nome della stazione.

Clicca sopra per visualizzare le osservazioni e previsioni meteorologiche.

Per cambiare la mappa : fare clic sui pulsanti verdi con una croce nera per ingrandire, il pulsante verde con un trattino per diminuire, o sulla freccia verde per le mappe adiacenti.


METAR-TAF: